sensor_id;sensor_type;location;lat;lon;timestamp;P1;durP1;ratioP1;P2;durP2;ratioP2
8819;SDS011;4446;50.876;4.736;2023-07-02T00:02:15;13.15;;;7.53;;
8819;SDS011;4446;50.876;4.736;2023-07-02T00:04:44;16.05;;;7.72;;
8819;SDS011;4446;50.876;4.736;2023-07-02T00:07:11;14.30;;;7.47;;
8819;SDS011;4446;50.876;4.736;2023-07-02T00:09:38;16.20;;;7.97;;
8819;SDS011;4446;50.876;4.736;2023-07-02T00:12:06;17.00;;;8.23;;
8819;SDS011;4446;50.876;4.736;2023-07-02T00:14:34;18.30;;;8.52;;
8819;SDS011;4446;50.876;4.736;2023-07-02T00:17:01;14.73;;;8.18;;
8819;SDS011;4446;50.876;4.736;2023-07-02T00:19:29;14.02;;;7.35;;
8819;SDS011;4446;50.876;4.736;2023-07-02T00:21:56;15.00;;;8.25;;
8819;SDS011;4446;50.876;4.736;2023-07-02T00:24:23;14.05;;;7.45;;
8819;SDS011;4446;50.876;4.736;2023-07-02T00:26:50;15.70;;;7.97;;
8819;SDS011;4446;50.876;4.736;2023-07-02T00:29:18;15.85;;;8.38;;
8819;SDS011;4446;50.876;4.736;2023-07-02T00:31:45;15.68;;;8.27;;
8819;SDS011;4446;50.876;4.736;2023-07-02T00:34:12;16.52;;;8.65;;
8819;SDS011;4446;50.876;4.736;2023-07-02T00:36:39;15.52;;;8.18;;
8819;SDS011;4446;50.876;4.736;2023-07-02T00:39:06;19.25;;;9.60;;
8819;SDS011;4446;50.876;4.736;2023-07-02T00:41:33;18.13;;;8.88;;
8819;SDS011;4446;50.876;4.736;2023-07-02T00:44:00;16.58;;;8.20;;
8819;SDS011;4446;50.876;4.736;2023-07-02T00:46:29;17.50;;;8.95;;
8819;SDS011;4446;50.876;4.736;2023-07-02T00:48:57;18.95;;;9.05;;
8819;SDS011;4446;50.876;4.736;2023-07-02T00:51:27;19.48;;;8.85;;
8819;SDS011;4446;50.876;4.736;2023-07-02T00:53:55;16.80;;;9.02;;
8819;SDS011;4446;50.876;4.736;2023-07-02T00:56:24;16.60;;;9.40;;
8819;SDS011;4446;50.876;4.736;2023-07-02T00:58:54;21.17;;;8.75;;
8819;SDS011;4446;50.876;4.736;2023-07-02T01:01:24;18.00;;;9.10;;
8819;SDS011;4446;50.876;4.736;2023-07-02T01:03:56;14.82;;;8.15;;
8819;SDS011;4446;50.876;4.736;2023-07-02T01:06:24;20.30;;;9.10;;
8819;SDS011;4446;50.876;4.736;2023-07-02T01:08:53;17.38;;;8.48;;
8819;SDS011;4446;50.876;4.736;2023-07-02T01:11:21;18.90;;;8.80;;
8819;SDS011;4446;50.876;4.736;2023-07-02T01:13:51;19.75;;;9.80;;
8819;SDS011;4446;50.876;4.736;2023-07-02T01:16:21;19.58;;;9.57;;
8819;SDS011;4446;50.876;4.736;2023-07-02T01:18:49;23.92;;;9.77;;
8819;SDS011;4446;50.876;4.736;2023-07-02T01:21:20;20.67;;;9.13;;
8819;SDS011;4446;50.876;4.736;2023-07-02T01:23:48;17.45;;;8.65;;
8819;SDS011;4446;50.876;4.736;2023-07-02T01:26:15;18.58;;;8.95;;
8819;SDS011;4446;50.876;4.736;2023-07-02T01:28:43;20.70;;;9.57;;
8819;SDS011;4446;50.876;4.736;2023-07-02T01:31:10;17.05;;;9.35;;
8819;SDS011;4446;50.876;4.736;2023-07-02T01:33:37;19.17;;;10.02;;
8819;SDS011;4446;50.876;4.736;2023-07-02T01:36:05;19.45;;;9.82;;
8819;SDS011;4446;50.876;4.736;2023-07-02T01:38:33;22.48;;;10.27;;
8819;SDS011;4446;50.876;4.736;2023-07-02T01:41:00;20.63;;;9.65;;
8819;SDS011;4446;50.876;4.736;2023-07-02T01:43:27;20.00;;;10.13;;
8819;SDS011;4446;50.876;4.736;2023-07-02T01:45:54;23.23;;;10.10;;
8819;SDS011;4446;50.876;4.736;2023-07-02T01:48:22;23.75;;;9.82;;
8819;SDS011;4446;50.876;4.736;2023-07-02T01:50:49;21.92;;;10.15;;
8819;SDS011;4446;50.876;4.736;2023-07-02T01:53:16;23.58;;;10.48;;
8819;SDS011;4446;50.876;4.736;2023-07-02T01:55:44;20.33;;;11.10;;
8819;SDS011;4446;50.876;4.736;2023-07-02T01:58:11;18.50;;;10.05;;
8819;SDS011;4446;50.876;4.736;2023-07-02T02:00:38;18.40;;;9.23;;
8819;SDS011;4446;50.876;4.736;2023-07-02T02:03:05;20.60;;;9.75;;
8819;SDS011;4446;50.876;4.736;2023-07-02T02:05:32;22.63;;;10.95;;
8819;SDS011;4446;50.876;4.736;2023-07-02T02:08:00;20.40;;;10.27;;
8819;SDS011;4446;50.876;4.736;2023-07-02T02:10:27;23.83;;;10.90;;
8819;SDS011;4446;50.876;4.736;2023-07-02T02:12:55;22.48;;;10.27;;
8819;SDS011;4446;50.876;4.736;2023-07-02T02:15:22;20.45;;;10.57;;
8819;SDS011;4446;50.876;4.736;2023-07-02T02:17:49;22.02;;;11.15;;
8819;SDS011;4446;50.876;4.736;2023-07-02T02:20:17;23.35;;;10.25;;
8819;SDS011;4446;50.876;4.736;2023-07-02T02:22:44;26.77;;;11.00;;
8819;SDS011;4446;50.876;4.736;2023-07-02T02:25:10;22.63;;;10.25;;
8819;SDS011;4446;50.876;4.736;2023-07-02T02:27:37;23.00;;;11.25;;
8819;SDS011;4446;50.876;4.736;2023-07-02T02:30:06;22.23;;;11.15;;
8819;SDS011;4446;50.876;4.736;2023-07-02T02:32:34;23.38;;;11.10;;
8819;SDS011;4446;50.876;4.736;2023-07-02T02:35:01;23.55;;;10.88;;
8819;SDS011;4446;50.876;4.736;2023-07-02T02:37:28;22.10;;;10.80;;
8819;SDS011;4446;50.876;4.736;2023-07-02T02:39:55;24.98;;;10.75;;
8819;SDS011;4446;50.876;4.736;2023-07-02T02:42:24;23.67;;;10.80;;
8819;SDS011;4446;50.876;4.736;2023-07-02T02:44:51;24.60;;;11.45;;
8819;SDS011;4446;50.876;4.736;2023-07-02T02:47:20;19.13;;;9.63;;
8819;SDS011;4446;50.876;4.736;2023-07-02T02:49:47;21.67;;;10.55;;
8819;SDS011;4446;50.876;4.736;2023-07-02T02:52:14;23.48;;;10.80;;
8819;SDS011;4446;50.876;4.736;2023-07-02T02:54:41;26.85;;;11.18;;
8819;SDS011;4446;50.876;4.736;2023-07-02T02:57:08;24.52;;;11.63;;
8819;SDS011;4446;50.876;4.736;2023-07-02T02:59:35;21.42;;;10.77;;
8819;SDS011;4446;50.876;4.736;2023-07-02T03:02:02;24.67;;;12.48;;
8819;SDS011;4446;50.876;4.736;2023-07-02T03:04:31;21.00;;;11.90;;
8819;SDS011;4446;50.876;4.736;2023-07-02T03:06:58;23.83;;;12.20;;
8819;SDS011;4446;50.876;4.736;2023-07-02T03:09:25;28.13;;;12.00;;
8819;SDS011;4446;50.876;4.736;2023-07-02T03:11:52;25.65;;;11.25;;
8819;SDS011;4446;50.876;4.736;2023-07-02T03:14:19;24.58;;;11.30;;
8819;SDS011;4446;50.876;4.736;2023-07-02T03:16:46;26.20;;;11.35;;
8819;SDS011;4446;50.876;4.736;2023-07-02T03:19:13;21.15;;;10.05;;
8819;SDS011;4446;50.876;4.736;2023-07-02T03:21:43;24.05;;;12.05;;
8819;SDS011;4446;50.876;4.736;2023-07-02T03:24:10;24.58;;;11.50;;
8819;SDS011;4446;50.876;4.736;2023-07-02T03:26:38;25.42;;;11.52;;
8819;SDS011;4446;50.876;4.736;2023-07-02T03:29:05;23.67;;;11.52;;
8819;SDS011;4446;50.876;4.736;2023-07-02T03:31:32;24.42;;;11.27;;
8819;SDS011;4446;50.876;4.736;2023-07-02T03:34:01;24.73;;;11.20;;
8819;SDS011;4446;50.876;4.736;2023-07-02T03:36:30;24.58;;;11.43;;
8819;SDS011;4446;50.876;4.736;2023-07-02T03:38:58;26.05;;;12.13;;
8819;SDS011;4446;50.876;4.736;2023-07-02T03:41:25;24.88;;;11.88;;
8819;SDS011;4446;50.876;4.736;2023-07-02T03:43:52;24.92;;;12.50;;
8819;SDS011;4446;50.876;4.736;2023-07-02T03:46:19;24.58;;;11.82;;
8819;SDS011;4446;50.876;4.736;2023-07-02T03:48:46;25.80;;;12.23;;
8819;SDS011;4446;50.876;4.736;2023-07-02T03:51:13;31.63;;;12.52;;
8819;SDS011;4446;50.876;4.736;2023-07-02T03:53:40;23.10;;;11.68;;
8819;SDS011;4446;50.876;4.736;2023-07-02T03:56:08;24.77;;;11.73;;
8819;SDS011;4446;50.876;4.736;2023-07-02T03:58:35;29.73;;;12.35;;
8819;SDS011;4446;50.876;4.736;2023-07-02T04:01:02;28.83;;;12.68;;
8819;SDS011;4446;50.876;4.736;2023-07-02T04:03:29;25.13;;;11.95;;
8819;SDS011;4446;50.876;4.736;2023-07-02T04:05:56;29.13;;;13.07;;
8819;SDS011;4446;50.876;4.736;2023-07-02T04:08:23;29.48;;;13.02;;
8819;SDS011;4446;50.876;4.736;2023-07-02T04:10:50;22.67;;;10.63;;
8819;SDS011;4446;50.876;4.736;2023-07-02T04:13:19;24.23;;;12.30;;
8819;SDS011;4446;50.876;4.736;2023-07-02T04:15:46;25.40;;;11.50;;
8819;SDS011;4446;50.876;4.736;2023-07-02T04:18:13;26.52;;;12.40;;
8819;SDS011;4446;50.876;4.736;2023-07-02T04:20:40;29.05;;;11.38;;
8819;SDS011;4446;50.876;4.736;2023-07-02T04:23:07;24.48;;;10.85;;
8819;SDS011;4446;50.876;4.736;2023-07-02T04:25:34;28.73;;;12.43;;
8819;SDS011;4446;50.876;4.736;2023-07-02T04:28:01;29.65;;;12.75;;
8819;SDS011;4446;50.876;4.736;2023-07-02T04:30:29;29.02;;;11.82;;
8819;SDS011;4446;50.876;4.736;2023-07-02T04:32:56;29.60;;;12.57;;
8819;SDS011;4446;50.876;4.736;2023-07-02T04:35:23;28.88;;;14.20;;
8819;SDS011;4446;50.876;4.736;2023-07-02T04:37:50;26.60;;;12.30;;
8819;SDS011;4446;50.876;4.736;2023-07-02T04:40:16;33.00;;;13.65;;
8819;SDS011;4446;50.876;4.736;2023-07-02T04:42:44;27.58;;;12.82;;
8819;SDS011;4446;50.876;4.736;2023-07-02T04:45:12;30.10;;;12.77;;
8819;SDS011;4446;50.876;4.736;2023-07-02T04:47:42;29.90;;;13.43;;
8819;SDS011;4446;50.876;4.736;2023-07-02T04:50:09;31.23;;;12.60;;
8819;SDS011;4446;50.876;4.736;2023-07-02T04:52:36;29.48;;;13.60;;
8819;SDS011;4446;50.876;4.736;2023-07-02T04:55:04;21.95;;;12.20;;
8819;SDS011;4446;50.876;4.736;2023-07-02T04:57:32;29.90;;;12.95;;
8819;SDS011;4446;50.876;4.736;2023-07-02T04:59:59;28.85;;;15.00;;
8819;SDS011;4446;50.876;4.736;2023-07-02T05:02:26;30.67;;;12.80;;
8819;SDS011;4446;50.876;4.736;2023-07-02T05:04:54;28.90;;;13.88;;
8819;SDS011;4446;50.876;4.736;2023-07-02T05:07:21;31.92;;;13.25;;
8819;SDS011;4446;50.876;4.736;2023-07-02T05:09:48;27.95;;;13.40;;
8819;SDS011;4446;50.876;4.736;2023-07-02T05:12:17;27.92;;;12.88;;
8819;SDS011;4446;50.876;4.736;2023-07-02T05:14:44;34.10;;;13.95;;
8819;SDS011;4446;50.876;4.736;2023-07-02T05:17:11;29.88;;;13.65;;
8819;SDS011;4446;50.876;4.736;2023-07-02T05:19:39;29.27;;;13.75;;
8819;SDS011;4446;50.876;4.736;2023-07-02T05:22:08;28.23;;;13.35;;
8819;SDS011;4446;50.876;4.736;2023-07-02T05:24:35;35.88;;;13.10;;
8819;SDS011;4446;50.876;4.736;2023-07-02T05:27:02;28.85;;;14.52;;
8819;SDS011;4446;50.876;4.736;2023-07-02T05:29:30;26.67;;;12.35;;
8819;SDS011;4446;50.876;4.736;2023-07-02T05:31:57;25.40;;;12.93;;
8819;SDS011;4446;50.876;4.736;2023-07-02T05:34:24;28.88;;;13.07;;
8819;SDS011;4446;50.876;4.736;2023-07-02T05:36:51;29.38;;;14.77;;
8819;SDS011;4446;50.876;4.736;2023-07-02T05:39:19;26.65;;;13.15;;
8819;SDS011;4446;50.876;4.736;2023-07-02T05:41:46;30.02;;;13.02;;
8819;SDS011;4446;50.876;4.736;2023-07-02T05:44:13;28.85;;;13.82;;
8819;SDS011;4446;50.876;4.736;2023-07-02T05:46:40;32.15;;;13.38;;
8819;SDS011;4446;50.876;4.736;2023-07-02T05:49:07;31.40;;;13.70;;
8819;SDS011;4446;50.876;4.736;2023-07-02T05:51:34;28.25;;;13.00;;
8819;SDS011;4446;50.876;4.736;2023-07-02T05:54:02;29.40;;;13.43;;
8819;SDS011;4446;50.876;4.736;2023-07-02T05:56:30;23.10;;;13.20;;
8819;SDS011;4446;50.876;4.736;2023-07-02T05:58:57;27.20;;;13.27;;
8819;SDS011;4446;50.876;4.736;2023-07-02T06:01:24;29.50;;;13.77;;
8819;SDS011;4446;50.876;4.736;2023-07-02T06:03:51;32.60;;;14.02;;
8819;SDS011;4446;50.876;4.736;2023-07-02T06:06:18;25.55;;;11.48;;
8819;SDS011;4446;50.876;4.736;2023-07-02T06:08:45;30.83;;;13.65;;
8819;SDS011;4446;50.876;4.736;2023-07-02T06:11:12;26.83;;;13.75;;
8819;SDS011;4446;50.876;4.736;2023-07-02T06:13:40;27.83;;;12.90;;
8819;SDS011;4446;50.876;4.736;2023-07-02T06:16:07;24.42;;;13.65;;
8819;SDS011;4446;50.876;4.736;2023-07-02T06:18:34;26.38;;;12.60;;
8819;SDS011;4446;50.876;4.736;2023-07-02T06:21:01;28.20;;;12.85;;
8819;SDS011;4446;50.876;4.736;2023-07-02T06:23:29;28.77;;;13.57;;
8819;SDS011;4446;50.876;4.736;2023-07-02T06:26:05;26.48;;;11.88;;
8819;SDS011;4446;50.876;4.736;2023-07-02T06:28:32;26.60;;;12.63;;
8819;SDS011;4446;50.876;4.736;2023-07-02T06:31:00;30.38;;;13.48;;
8819;SDS011;4446;50.876;4.736;2023-07-02T06:33:27;26.50;;;12.43;;
8819;SDS011;4446;50.876;4.736;2023-07-02T06:35:54;26.40;;;12.48;;
8819;SDS011;4446;50.876;4.736;2023-07-02T06:38:21;26.90;;;13.52;;
8819;SDS011;4446;50.876;4.736;2023-07-02T06:40:48;20.58;;;12.65;;
8819;SDS011;4446;50.876;4.736;2023-07-02T06:43:15;25.02;;;12.38;;
8819;SDS011;4446;50.876;4.736;2023-07-02T06:45:42;24.52;;;12.63;;
8819;SDS011;4446;50.876;4.736;2023-07-02T06:48:10;25.92;;;11.65;;
8819;SDS011;4446;50.876;4.736;2023-07-02T06:50:37;21.73;;;11.98;;
8819;SDS011;4446;50.876;4.736;2023-07-02T06:53:04;31.10;;;13.10;;
8819;SDS011;4446;50.876;4.736;2023-07-02T06:55:31;25.67;;;11.93;;
8819;SDS011;4446;50.876;4.736;2023-07-02T06:57:58;22.95;;;12.63;;
8819;SDS011;4446;50.876;4.736;2023-07-02T07:00:25;23.77;;;12.85;;
8819;SDS011;4446;50.876;4.736;2023-07-02T07:02:52;23.02;;;11.95;;
8819;SDS011;4446;50.876;4.736;2023-07-02T07:05:20;21.88;;;11.05;;
8819;SDS011;4446;50.876;4.736;2023-07-02T07:07:47;23.55;;;11.73;;
8819;SDS011;4446;50.876;4.736;2023-07-02T07:10:15;26.63;;;12.50;;
8819;SDS011;4446;50.876;4.736;2023-07-02T07:12:42;24.23;;;11.20;;
8819;SDS011;4446;50.876;4.736;2023-07-02T07:15:10;26.10;;;11.02;;
8819;SDS011;4446;50.876;4.736;2023-07-02T07:17:37;22.63;;;10.70;;
8819;SDS011;4446;50.876;4.736;2023-07-02T07:20:04;23.00;;;10.57;;
8819;SDS011;4446;50.876;4.736;2023-07-02T07:22:33;18.55;;;9.32;;
8819;SDS011;4446;50.876;4.736;2023-07-02T07:25:00;15.73;;;9.38;;
8819;SDS011;4446;50.876;4.736;2023-07-02T07:27:28;18.33;;;8.80;;
8819;SDS011;4446;50.876;4.736;2023-07-02T07:29:55;16.42;;;8.90;;
8819;SDS011;4446;50.876;4.736;2023-07-02T07:32:21;16.35;;;8.43;;
8819;SDS011;4446;50.876;4.736;2023-07-02T07:34:48;15.75;;;7.90;;
8819;SDS011;4446;50.876;4.736;2023-07-02T07:37:16;10.63;;;6.68;;
8819;SDS011;4446;50.876;4.736;2023-07-02T07:39:44;13.80;;;6.93;;
8819;SDS011;4446;50.876;4.736;2023-07-02T07:42:11;14.77;;;7.30;;
8819;SDS011;4446;50.876;4.736;2023-07-02T07:44:40;14.07;;;7.10;;
8819;SDS011;4446;50.876;4.736;2023-07-02T07:47:07;13.23;;;6.93;;
8819;SDS011;4446;50.876;4.736;2023-07-02T07:49:34;14.60;;;7.25;;
8819;SDS011;4446;50.876;4.736;2023-07-02T07:52:01;12.63;;;7.03;;
8819;SDS011;4446;50.876;4.736;2023-07-02T07:54:31;16.80;;;7.47;;
8819;SDS011;4446;50.876;4.736;2023-07-02T07:57:01;12.00;;;6.60;;
8819;SDS011;4446;50.876;4.736;2023-07-02T07:59:29;16.45;;;7.57;;
8819;SDS011;4446;50.876;4.736;2023-07-02T08:01:56;13.45;;;7.45;;
8819;SDS011;4446;50.876;4.736;2023-07-02T08:04:23;11.35;;;6.53;;
8819;SDS011;4446;50.876;4.736;2023-07-02T08:06:49;12.38;;;6.25;;
8819;SDS011;4446;50.876;4.736;2023-07-02T08:09:16;14.32;;;6.78;;
8819;SDS011;4446;50.876;4.736;2023-07-02T08:11:43;14.48;;;6.75;;
8819;SDS011;4446;50.876;4.736;2023-07-02T08:14:12;13.98;;;6.72;;
8819;SDS011;4446;50.876;4.736;2023-07-02T08:16:39;9.98;;;5.47;;
8819;SDS011;4446;50.876;4.736;2023-07-02T08:19:06;10.77;;;5.60;;
8819;SDS011;4446;50.876;4.736;2023-07-02T08:21:33;10.18;;;5.18;;
8819;SDS011;4446;50.876;4.736;2023-07-02T08:24:00;12.77;;;5.47;;
8819;SDS011;4446;50.876;4.736;2023-07-02T08:26:27;8.63;;;5.18;;
8819;SDS011;4446;50.876;4.736;2023-07-02T08:28:54;8.70;;;4.97;;
8819;SDS011;4446;50.876;4.736;2023-07-02T08:31:23;9.57;;;4.60;;
8819;SDS011;4446;50.876;4.736;2023-07-02T08:33:50;9.95;;;5.57;;
8819;SDS011;4446;50.876;4.736;2023-07-02T08:36:17;11.68;;;6.35;;
8819;SDS011;4446;50.876;4.736;2023-07-02T08:38:44;11.07;;;5.78;;
8819;SDS011;4446;50.876;4.736;2023-07-02T08:41:11;7.70;;;5.10;;
8819;SDS011;4446;50.876;4.736;2023-07-02T08:43:38;11.43;;;6.32;;
8819;SDS011;4446;50.876;4.736;2023-07-02T08:46:06;9.55;;;5.35;;
8819;SDS011;4446;50.876;4.736;2023-07-02T08:48:35;10.68;;;5.35;;
8819;SDS011;4446;50.876;4.736;2023-07-02T08:51:03;10.32;;;5.63;;
8819;SDS011;4446;50.876;4.736;2023-07-02T08:53:30;12.20;;;5.38;;
8819;SDS011;4446;50.876;4.736;2023-07-02T08:55:58;9.90;;;5.00;;
8819;SDS011;4446;50.876;4.736;2023-07-02T08:58:25;11.90;;;5.53;;
8819;SDS011;4446;50.876;4.736;2023-07-02T09:03:38;10.45;;;5.68;;
8819;SDS011;4446;50.876;4.736;2023-07-02T09:06:17;12.57;;;5.78;;
8819;SDS011;4446;50.876;4.736;2023-07-02T09:08:45;14.63;;;6.30;;
8819;SDS011;4446;50.876;4.736;2023-07-02T09:11:12;12.68;;;5.65;;
8819;SDS011;4446;50.876;4.736;2023-07-02T09:13:45;12.60;;;6.10;;
8819;SDS011;4446;50.876;4.736;2023-07-02T09:16:23;12.32;;;5.75;;
8819;SDS011;4446;50.876;4.736;2023-07-02T09:18:59;10.52;;;6.40;;
8819;SDS011;4446;50.876;4.736;2023-07-02T09:21:37;11.65;;;5.70;;
8819;SDS011;4446;50.876;4.736;2023-07-02T09:24:12;13.10;;;6.05;;
8819;SDS011;4446;50.876;4.736;2023-07-02T09:26:43;11.15;;;6.10;;
8819;SDS011;4446;50.876;4.736;2023-07-02T09:29:11;12.18;;;5.90;;
8819;SDS011;4446;50.876;4.736;2023-07-02T09:31:45;12.40;;;6.57;;
8819;SDS011;4446;50.876;4.736;2023-07-02T09:34:13;11.25;;;6.80;;
8819;SDS011;4446;50.876;4.736;2023-07-02T09:36:41;14.98;;;6.72;;
8819;SDS011;4446;50.876;4.736;2023-07-02T09:39:10;12.55;;;6.97;;
8819;SDS011;4446;50.876;4.736;2023-07-02T09:41:38;13.23;;;6.68;;
8819;SDS011;4446;50.876;4.736;2023-07-02T09:44:07;12.50;;;7.28;;
8819;SDS011;4446;50.876;4.736;2023-07-02T09:46:36;15.70;;;7.70;;
8819;SDS011;4446;50.876;4.736;2023-07-02T09:49:08;12.93;;;7.35;;
8819;SDS011;4446;50.876;4.736;2023-07-02T09:51:41;12.68;;;7.60;;
8819;SDS011;4446;50.876;4.736;2023-07-02T09:54:10;13.18;;;7.05;;
8819;SDS011;4446;50.876;4.736;2023-07-02T09:56:37;13.38;;;7.25;;
8819;SDS011;4446;50.876;4.736;2023-07-02T09:59:04;15.05;;;7.30;;
8819;SDS011;4446;50.876;4.736;2023-07-02T10:01:31;15.43;;;7.90;;
8819;SDS011;4446;50.876;4.736;2023-07-02T10:03:58;12.65;;;7.95;;
8819;SDS011;4446;50.876;4.736;2023-07-02T10:06:46;13.55;;;7.30;;
8819;SDS011;4446;50.876;4.736;2023-07-02T10:09:14;14.05;;;7.22;;
8819;SDS011;4446;50.876;4.736;2023-07-02T10:11:41;15.23;;;6.80;;
8819;SDS011;4446;50.876;4.736;2023-07-02T10:14:08;15.85;;;6.38;;
8819;SDS011;4446;50.876;4.736;2023-07-02T10:16:47;13.70;;;7.28;;
8819;SDS011;4446;50.876;4.736;2023-07-02T10:19:15;11.70;;;7.18;;
8819;SDS011;4446;50.876;4.736;2023-07-02T10:21:43;12.95;;;6.70;;
8819;SDS011;4446;50.876;4.736;2023-07-02T10:24:16;13.80;;;6.63;;
8819;SDS011;4446;50.876;4.736;2023-07-02T10:26:53;13.23;;;7.55;;
8819;SDS011;4446;50.876;4.736;2023-07-02T10:29:22;13.30;;;6.78;;
8819;SDS011;4446;50.876;4.736;2023-07-02T10:31:50;14.65;;;7.47;;
8819;SDS011;4446;50.876;4.736;2023-07-02T10:34:28;13.02;;;7.72;;
8819;SDS011;4446;50.876;4.736;2023-07-02T10:36:57;12.70;;;7.20;;
8819;SDS011;4446;50.876;4.736;2023-07-02T10:39:26;12.05;;;7.35;;
8819;SDS011;4446;50.876;4.736;2023-07-02T10:42:03;15.18;;;7.28;;
8819;SDS011;4446;50.876;4.736;2023-07-02T10:44:30;13.50;;;6.68;;
8819;SDS011;4446;50.876;4.736;2023-07-02T10:46:57;16.35;;;7.10;;
8819;SDS011;4446;50.876;4.736;2023-07-02T10:49:29;12.05;;;6.50;;
8819;SDS011;4446;50.876;4.736;2023-07-02T10:51:59;15.93;;;7.10;;
8819;SDS011;4446;50.876;4.736;2023-07-02T10:54:38;15.00;;;6.50;;
8819;SDS011;4446;50.876;4.736;2023-07-02T10:57:06;13.00;;;6.57;;
8819;SDS011;4446;50.876;4.736;2023-07-02T10:59:33;13.43;;;7.40;;
8819;SDS011;4446;50.876;4.736;2023-07-02T11:02:02;12.52;;;8.02;;
8819;SDS011;4446;50.876;4.736;2023-07-02T11:04:31;13.88;;;7.00;;
8819;SDS011;4446;50.876;4.736;2023-07-02T11:07:01;13.35;;;6.80;;
8819;SDS011;4446;50.876;4.736;2023-07-02T11:09:28;12.55;;;7.03;;
8819;SDS011;4446;50.876;4.736;2023-07-02T11:11:56;11.95;;;7.03;;
8819;SDS011;4446;50.876;4.736;2023-07-02T11:14:30;15.35;;;7.25;;
8819;SDS011;4446;50.876;4.736;2023-07-02T11:16:59;9.90;;;5.82;;
8819;SDS011;4446;50.876;4.736;2023-07-02T11:19:28;12.80;;;6.95;;
8819;SDS011;4446;50.876;4.736;2023-07-02T11:21:57;10.93;;;6.50;;
8819;SDS011;4446;50.876;4.736;2023-07-02T11:24:32;11.25;;;6.53;;
8819;SDS011;4446;50.876;4.736;2023-07-02T11:27:00;15.18;;;6.68;;
8819;SDS011;4446;50.876;4.736;2023-07-02T11:29:28;11.65;;;6.82;;
8819;SDS011;4446;50.876;4.736;2023-07-02T11:32:04;11.40;;;6.30;;
8819;SDS011;4446;50.876;4.736;2023-07-02T11:34:31;15.15;;;6.88;;
8819;SDS011;4446;50.876;4.736;2023-07-02T11:36:58;10.48;;;6.80;;
8819;SDS011;4446;50.876;4.736;2023-07-02T11:39:25;12.77;;;7.25;;
8819;SDS011;4446;50.876;4.736;2023-07-02T11:41:53;12.45;;;6.47;;
8819;SDS011;4446;50.876;4.736;2023-07-02T11:44:20;16.92;;;7.75;;
8819;SDS011;4446;50.876;4.736;2023-07-02T11:46:47;13.90;;;6.70;;
8819;SDS011;4446;50.876;4.736;2023-07-02T11:49:15;15.48;;;7.22;;
8819;SDS011;4446;50.876;4.736;2023-07-02T11:51:42;11.25;;;6.80;;
8819;SDS011;4446;50.876;4.736;2023-07-02T11:54:13;14.40;;;7.30;;
8819;SDS011;4446;50.876;4.736;2023-07-02T11:56:40;11.70;;;6.32;;
8819;SDS011;4446;50.876;4.736;2023-07-02T11:59:09;11.45;;;5.90;;
8819;SDS011;4446;50.876;4.736;2023-07-02T12:01:36;11.13;;;5.95;;
8819;SDS011;4446;50.876;4.736;2023-07-02T12:04:03;13.07;;;6.70;;
8819;SDS011;4446;50.876;4.736;2023-07-02T12:06:30;12.95;;;6.32;;
8819;SDS011;4446;50.876;4.736;2023-07-02T12:08:57;11.30;;;6.10;;
8819;SDS011;4446;50.876;4.736;2023-07-02T12:11:24;11.93;;;6.55;;
8819;SDS011;4446;50.876;4.736;2023-07-02T12:13:51;10.98;;;6.15;;
8819;SDS011;4446;50.876;4.736;2023-07-02T12:16:19;16.02;;;6.78;;
8819;SDS011;4446;50.876;4.736;2023-07-02T12:18:46;9.23;;;5.80;;
8819;SDS011;4446;50.876;4.736;2023-07-02T12:21:13;10.45;;;5.78;;
8819;SDS011;4446;50.876;4.736;2023-07-02T12:23:41;10.63;;;5.85;;
8819;SDS011;4446;50.876;4.736;2023-07-02T12:26:07;10.93;;;5.95;;
8819;SDS011;4446;50.876;4.736;2023-07-02T12:28:34;11.07;;;6.40;;
8819;SDS011;4446;50.876;4.736;2023-07-02T12:31:01;13.63;;;6.15;;
8819;SDS011;4446;50.876;4.736;2023-07-02T12:33:30;9.43;;;5.55;;
8819;SDS011;4446;50.876;4.736;2023-07-02T12:35:57;10.95;;;5.78;;
8819;SDS011;4446;50.876;4.736;2023-07-02T12:38:24;12.45;;;6.82;;
8819;SDS011;4446;50.876;4.736;2023-07-02T12:40:52;9.20;;;5.45;;
8819;SDS011;4446;50.876;4.736;2023-07-02T12:43:19;9.00;;;6.03;;
8819;SDS011;4446;50.876;4.736;2023-07-02T12:45:47;10.98;;;5.80;;
8819;SDS011;4446;50.876;4.736;2023-07-02T12:48:14;9.10;;;5.50;;
8819;SDS011;4446;50.876;4.736;2023-07-02T12:50:45;10.18;;;6.65;;
8819;SDS011;4446;50.876;4.736;2023-07-02T12:53:21;11.63;;;5.93;;
8819;SDS011;4446;50.876;4.736;2023-07-02T12:55:49;10.32;;;6.50;;
8819;SDS011;4446;50.876;4.736;2023-07-02T12:58:16;10.10;;;5.80;;
8819;SDS011;4446;50.876;4.736;2023-07-02T13:00:43;9.88;;;5.45;;
8819;SDS011;4446;50.876;4.736;2023-07-02T13:03:11;9.63;;;5.82;;
8819;SDS011;4446;50.876;4.736;2023-07-02T13:05:39;10.60;;;5.78;;
8819;SDS011;4446;50.876;4.736;2023-07-02T13:08:09;10.00;;;5.90;;
8819;SDS011;4446;50.876;4.736;2023-07-02T13:10:37;10.85;;;5.80;;
8819;SDS011;4446;50.876;4.736;2023-07-02T13:13:04;8.88;;;5.40;;
8819;SDS011;4446;50.876;4.736;2023-07-02T13:15:31;10.07;;;5.57;;
8819;SDS011;4446;50.876;4.736;2023-07-02T13:17:59;8.82;;;5.53;;
8819;SDS011;4446;50.876;4.736;2023-07-02T13:20:26;8.10;;;4.97;;
8819;SDS011;4446;50.876;4.736;2023-07-02T13:22:55;9.60;;;6.03;;
8819;SDS011;4446;50.876;4.736;2023-07-02T13:25:23;11.73;;;6.35;;
8819;SDS011;4446;50.876;4.736;2023-07-02T13:27:50;9.95;;;6.35;;
8819;SDS011;4446;50.876;4.736;2023-07-02T13:30:17;12.57;;;6.88;;
8819;SDS011;4446;50.876;4.736;2023-07-02T13:32:44;11.98;;;6.28;;
8819;SDS011;4446;50.876;4.736;2023-07-02T13:35:11;11.30;;;6.18;;
8819;SDS011;4446;50.876;4.736;2023-07-02T13:37:38;11.05;;;6.38;;
8819;SDS011;4446;50.876;4.736;2023-07-02T13:40:07;9.75;;;5.30;;
8819;SDS011;4446;50.876;4.736;2023-07-02T13:42:37;12.98;;;6.22;;
8819;SDS011;4446;50.876;4.736;2023-07-02T13:45:05;9.82;;;5.55;;
8819;SDS011;4446;50.876;4.736;2023-07-02T13:47:33;10.98;;;5.68;;
8819;SDS011;4446;50.876;4.736;2023-07-02T13:50:00;12.15;;;5.82;;
8819;SDS011;4446;50.876;4.736;2023-07-02T13:52:28;10.07;;;6.22;;
8819;SDS011;4446;50.876;4.736;2023-07-02T13:54:55;10.25;;;5.95;;
8819;SDS011;4446;50.876;4.736;2023-07-02T13:57:25;8.55;;;5.15;;
8819;SDS011;4446;50.876;4.736;2023-07-02T13:59:54;9.68;;;5.32;;
8819;SDS011;4446;50.876;4.736;2023-07-02T14:02:22;9.40;;;5.38;;
8819;SDS011;4446;50.876;4.736;2023-07-02T14:04:49;11.02;;;5.57;;
8819;SDS011;4446;50.876;4.736;2023-07-02T14:07:16;11.23;;;6.47;;
8819;SDS011;4446;50.876;4.736;2023-07-02T14:09:43;12.43;;;6.55;;
8819;SDS011;4446;50.876;4.736;2023-07-02T14:12:10;9.82;;;5.78;;
8819;SDS011;4446;50.876;4.736;2023-07-02T14:14:38;12.00;;;5.65;;
8819;SDS011;4446;50.876;4.736;2023-07-02T14:17:07;8.88;;;5.50;;
8819;SDS011;4446;50.876;4.736;2023-07-02T14:19:34;11.40;;;5.95;;
8819;SDS011;4446;50.876;4.736;2023-07-02T14:22:01;9.93;;;5.82;;
8819;SDS011;4446;50.876;4.736;2023-07-02T14:24:29;9.27;;;5.28;;
8819;SDS011;4446;50.876;4.736;2023-07-02T14:26:56;10.75;;;6.53;;
8819;SDS011;4446;50.876;4.736;2023-07-02T14:29:24;13.57;;;6.03;;
8819;SDS011;4446;50.876;4.736;2023-07-02T14:31:51;14.05;;;6.13;;
8819;SDS011;4446;50.876;4.736;2023-07-02T14:34:19;11.30;;;5.47;;
8819;SDS011;4446;50.876;4.736;2023-07-02T14:36:47;7.07;;;5.35;;
8819;SDS011;4446;50.876;4.736;2023-07-02T14:39:14;7.85;;;5.35;;
8819;SDS011;4446;50.876;4.736;2023-07-02T14:41:41;9.48;;;5.85;;
8819;SDS011;4446;50.876;4.736;2023-07-02T14:44:08;9.57;;;5.47;;
8819;SDS011;4446;50.876;4.736;2023-07-02T14:46:35;12.05;;;5.82;;
8819;SDS011;4446;50.876;4.736;2023-07-02T14:49:02;12.07;;;6.32;;
8819;SDS011;4446;50.876;4.736;2023-07-02T14:51:30;9.70;;;5.30;;
8819;SDS011;4446;50.876;4.736;2023-07-02T14:53:57;9.95;;;4.95;;
8819;SDS011;4446;50.876;4.736;2023-07-02T14:56:26;11.65;;;6.53;;
8819;SDS011;4446;50.876;4.736;2023-07-02T14:58:53;11.63;;;5.68;;
8819;SDS011;4446;50.876;4.736;2023-07-02T15:01:20;9.60;;;5.90;;
8819;SDS011;4446;50.876;4.736;2023-07-02T15:03:47;13.00;;;6.55;;
8819;SDS011;4446;50.876;4.736;2023-07-02T15:06:15;12.35;;;6.10;;